WAT2933 KMCO-TNCM
Flight info
| Callsign | WAT2933 |
|---|---|
| Flight time | 2h 30m |
| Altitude | 39000 |
| Route | DDANY3 JIPOD DCT VENDS Y185 COUKY DCT FIPEK Y355 SLUGO |
| Aircraft | A343/H-SDE2E3FGHIJ4J5M1RWXY/LB1D1 |
Departure
| Time | 2026-04-23 16:46 |
|---|---|
| Airport | Orlando International Airport (KMCO) |
Arrival
| Time | 2026-04-23 19:16 |
|---|---|
| Airport | Princess Juliana International Airport (TNCM) |
| Time | Latitude | Longitude | Altitude | Speed | Heading |
|---|---|---|---|---|---|
| 2026-04-23 16:09 | 28.41234 | -81.31707 | 98 ft | 0 kts | 180° |
| 2026-04-23 16:34 | 28.41251 | -81.31707 | 101 ft | 4 kts | 180° |
| 2026-04-23 16:34 | 28.41278 | -81.31707 | 98 ft | 4 kts | 180° |
| 2026-04-23 16:34 | 28.41300 | -81.31707 | 100 ft | 4 kts | 184° |
| 2026-04-23 16:34 | 28.41323 | -81.31700 | 97 ft | 4 kts | 230° |
| 2026-04-23 16:35 | 28.41330 | -81.31676 | 96 ft | 4 kts | 270° |
| 2026-04-23 16:35 | 28.41330 | -81.31650 | 98 ft | 1 kts | 270° |
| 2026-04-23 16:38 | 28.41330 | -81.31651 | 98 ft | 1 kts | 270° |
| 2026-04-23 16:38 | 28.41330 | -81.31663 | 98 ft | 2 kts | 270° |
| 2026-04-23 16:38 | 28.41330 | -81.31685 | 98 ft | 4 kts | 270° |
| 2026-04-23 16:39 | 28.41330 | -81.31718 | 98 ft | 5 kts | 269° |
| 2026-04-23 16:39 | 28.41330 | -81.31776 | 100 ft | 9 kts | 269° |
| 2026-04-23 16:39 | 28.41327 | -81.31854 | 102 ft | 11 kts | 270° |
| 2026-04-23 16:39 | 28.41381 | -81.31910 | 104 ft | 13 kts | 355° |
| 2026-04-23 16:40 | 28.41485 | -81.31908 | 102 ft | 17 kts | 6° |
| 2026-04-23 16:40 | 28.41610 | -81.31876 | 104 ft | 19 kts | 358° |
| 2026-04-23 16:40 | 28.41751 | -81.31879 | 103 ft | 22 kts | 2° |
| 2026-04-23 16:40 | 28.41910 | -81.31877 | 104 ft | 24 kts | 359° |
| 2026-04-23 16:41 | 28.42088 | -81.31875 | 103 ft | 28 kts | 3° |
| 2026-04-23 16:41 | 28.42295 | -81.31832 | 105 ft | 33 kts | 4° |
| 2026-04-23 16:41 | 28.42539 | -81.31835 | 106 ft | 37 kts | 359° |
| 2026-04-23 16:41 | 28.42815 | -81.31837 | 104 ft | 42 kts | 358° |
| 2026-04-23 16:42 | 28.43124 | -81.31842 | 103 ft | 46 kts | 0° |
| 2026-04-23 16:42 | 28.43437 | -81.31844 | 104 ft | 44 kts | 359° |
| 2026-04-23 16:42 | 28.43735 | -81.31846 | 105 ft | 42 kts | 0° |
| 2026-04-23 16:42 | 28.44011 | -81.31884 | 104 ft | 39 kts | 343° |
| 2026-04-23 16:43 | 28.44274 | -81.31902 | 103 ft | 37 kts | 360° |
| 2026-04-23 16:43 | 28.44526 | -81.31909 | 104 ft | 36 kts | 358° |
| 2026-04-23 16:43 | 28.44741 | -81.31917 | 103 ft | 27 kts | 356° |
| 2026-04-23 16:43 | 28.44832 | -81.31986 | 104 ft | 11 kts | 269° |
| 2026-04-23 16:44 | 28.44826 | -81.32081 | 103 ft | 14 kts | 266° |
| 2026-04-23 16:44 | 28.44817 | -81.32207 | 102 ft | 12 kts | 250° |
| 2026-04-23 16:44 | 28.44747 | -81.32230 | 103 ft | 12 kts | 179° |
| 2026-04-23 16:44 | 28.44592 | -81.32229 | 104 ft | 32 kts | 180° |
| 2026-04-23 16:45 | 28.44214 | -81.32225 | 108 ft | 82 kts | 179° |
| 2026-04-23 16:45 | 28.43461 | -81.32215 | 103 ft | 133 kts | 179° |
| 2026-04-23 16:45 | 28.42395 | -81.32203 | 113 ft | 172 kts | 179° |
| 2026-04-23 16:45 | 28.41188 | -81.32173 | 554 ft | 178 kts | 173° |
| 2026-04-23 16:46 | 28.39958 | -81.32037 | 1203 ft | 177 kts | 167° |
| 2026-04-23 16:46 | 28.38767 | -81.31489 | 1555 ft | 198 kts | 144° |
| 2026-04-23 16:46 | 28.37675 | -81.30349 | 1851 ft | 230 kts | 132° |
| 2026-04-23 16:46 | 28.36562 | -81.28951 | 2532 ft | 243 kts | 131° |
| 2026-04-23 16:47 | 28.35446 | -81.27499 | 3515 ft | 245 kts | 127° |
| 2026-04-23 16:47 | 28.34687 | -81.25747 | 4347 ft | 253 kts | 105° |
| 2026-04-23 16:47 | 28.34317 | -81.23778 | 5334 ft | 256 kts | 101° |
| 2026-04-23 16:47 | 28.34006 | -81.21805 | 6279 ft | 259 kts | 101° |
| 2026-04-23 16:48 | 28.33682 | -81.19782 | 7182 ft | 263 kts | 101° |
| 2026-04-23 16:48 | 28.33345 | -81.17722 | 8019 ft | 267 kts | 102° |
| 2026-04-23 16:48 | 28.32992 | -81.15614 | 8762 ft | 277 kts | 101° |
| 2026-04-23 16:48 | 28.32622 | -81.13427 | 9460 ft | 286 kts | 101° |
| 2026-04-23 16:49 | 28.32371 | -81.11946 | 9959 ft | 292 kts | 101° |
| 2026-04-23 16:49 | 28.31839 | -81.08818 | 10544 ft | 315 kts | 101° |
| 2026-04-23 16:49 | 28.31408 | -81.06294 | 10806 ft | 336 kts | 101° |
| 2026-04-23 16:49 | 28.30957 | -81.03660 | 11144 ft | 352 kts | 101° |
| 2026-04-23 16:50 | 28.30483 | -81.00899 | 11748 ft | 360 kts | 101° |
| 2026-04-23 16:50 | 28.30000 | -80.98083 | 12354 ft | 367 kts | 101° |
| 2026-04-23 16:50 | 28.29508 | -80.95218 | 13010 ft | 373 kts | 101° |
| 2026-04-23 16:50 | 28.29007 | -80.92308 | 13766 ft | 377 kts | 101° |
| 2026-04-23 16:51 | 28.28501 | -80.89372 | 14451 ft | 382 kts | 101° |
| 2026-04-23 16:51 | 28.27931 | -80.86413 | 15061 ft | 387 kts | 106° |
| 2026-04-23 16:51 | 28.27025 | -80.83523 | 15687 ft | 391 kts | 112° |
| 2026-04-23 16:51 | 28.26009 | -80.80690 | 16308 ft | 395 kts | 112° |
| 2026-04-23 16:52 | 28.24956 | -80.77792 | 16915 ft | 400 kts | 113° |
| 2026-04-23 16:52 | 28.23890 | -80.74850 | 17511 ft | 405 kts | 112° |
| 2026-04-23 16:52 | 28.22813 | -80.71873 | 18106 ft | 410 kts | 112° |
| 2026-04-23 16:52 | 28.21726 | -80.68861 | 18679 ft | 415 kts | 113° |
| 2026-04-23 16:53 | 28.20631 | -80.65813 | 19203 ft | 420 kts | 112° |
| 2026-04-23 16:53 | 28.19592 | -80.62704 | 19723 ft | 424 kts | 111° |
| 2026-04-23 16:53 | 28.18570 | -80.59552 | 20254 ft | 428 kts | 111° |
| 2026-04-23 16:53 | 28.17548 | -80.56416 | 20754 ft | 433 kts | 111° |
| 2026-04-23 16:54 | 28.16495 | -80.53206 | 21262 ft | 437 kts | 111° |
| 2026-04-23 16:54 | 28.15426 | -80.49963 | 21740 ft | 441 kts | 111° |
| 2026-04-23 16:54 | 28.14343 | -80.46687 | 22232 ft | 446 kts | 111° |
| 2026-04-23 16:54 | 28.13250 | -80.43389 | 22720 ft | 450 kts | 111° |
| 2026-04-23 16:55 | 28.12146 | -80.40061 | 23195 ft | 454 kts | 111° |
| 2026-04-23 16:55 | 28.11030 | -80.36700 | 23664 ft | 458 kts | 111° |
| 2026-04-23 16:55 | 28.09904 | -80.33314 | 24053 ft | 461 kts | 111° |
| 2026-04-23 16:55 | 28.08770 | -80.29906 | 24492 ft | 464 kts | 112° |
| 2026-04-23 16:56 | 28.07642 | -80.26531 | 24886 ft | 466 kts | 112° |
| 2026-04-23 16:56 | 28.06491 | -80.23090 | 25286 ft | 468 kts | 112° |
| 2026-04-23 16:56 | 28.05333 | -80.19636 | 25703 ft | 471 kts | 112° |
| 2026-04-23 16:56 | 28.04167 | -80.16161 | 26098 ft | 473 kts | 112° |
| 2026-04-23 16:57 | 28.02992 | -80.12662 | 26444 ft | 477 kts | 112° |
| 2026-04-23 16:57 | 28.01810 | -80.09147 | 26811 ft | 479 kts | 112° |
| 2026-04-23 16:57 | 28.00622 | -80.05613 | 27168 ft | 482 kts | 112° |
| 2026-04-23 16:57 | 27.99428 | -80.02065 | 27562 ft | 484 kts | 112° |
| 2026-04-23 16:58 | 27.98244 | -79.98554 | 27925 ft | 486 kts | 112° |
| 2026-04-23 16:58 | 27.97037 | -79.94973 | 28274 ft | 488 kts | 112° |
| 2026-04-23 16:58 | 27.95823 | -79.91378 | 28623 ft | 491 kts | 112° |
| 2026-04-23 16:58 | 27.94601 | -79.87762 | 28946 ft | 493 kts | 112° |
| 2026-04-23 16:59 | 27.93374 | -79.84137 | 29278 ft | 495 kts | 112° |
| 2026-04-23 16:59 | 27.92141 | -79.80495 | 29600 ft | 497 kts | 112° |
| 2026-04-23 16:59 | 27.90901 | -79.76838 | 29904 ft | 500 kts | 112° |
| 2026-04-23 16:59 | 27.89653 | -79.73161 | 30200 ft | 502 kts | 112° |
| 2026-04-23 17:00 | 27.88398 | -79.69464 | 30461 ft | 504 kts | 112° |
| 2026-04-23 17:00 | 27.87139 | -79.65761 | 30702 ft | 507 kts | 112° |
| 2026-04-23 17:00 | 27.85888 | -79.62089 | 30925 ft | 509 kts | 113° |
| 2026-04-23 17:00 | 27.84613 | -79.58345 | 31170 ft | 511 kts | 113° |
| 2026-04-23 17:01 | 27.83331 | -79.54587 | 31405 ft | 513 kts | 113° |
| 2026-04-23 17:01 | 27.82046 | -79.50823 | 31657 ft | 515 kts | 113° |
| 2026-04-23 17:01 | 27.80756 | -79.47047 | 31977 ft | 514 kts | 113° |
| 2026-04-23 17:01 | 27.79469 | -79.43282 | 32295 ft | 514 kts | 113° |
| 2026-04-23 17:02 | 27.78615 | -79.40789 | 32507 ft | 514 kts | 113° |
| 2026-04-23 17:02 | 27.76893 | -79.35763 | 32930 ft | 513 kts | 113° |
| 2026-04-23 17:02 | 27.75622 | -79.32058 | 33228 ft | 513 kts | 114° |
| 2026-04-23 17:02 | 27.74331 | -79.28300 | 33531 ft | 513 kts | 114° |
| 2026-04-23 17:03 | 27.73041 | -79.24549 | 33818 ft | 513 kts | 114° |
| 2026-04-23 17:03 | 27.71750 | -79.20799 | 34103 ft | 513 kts | 114° |
| 2026-04-23 17:03 | 27.70459 | -79.17051 | 34360 ft | 512 kts | 114° |
| 2026-04-23 17:03 | 27.69169 | -79.13311 | 34615 ft | 512 kts | 114° |
| 2026-04-23 17:04 | 27.67879 | -79.09574 | 34883 ft | 511 kts | 114° |
| 2026-04-23 17:04 | 27.66589 | -79.05840 | 35136 ft | 510 kts | 114° |
| 2026-04-23 17:04 | 27.65301 | -79.02116 | 35406 ft | 509 kts | 114° |
| 2026-04-23 17:04 | 27.64031 | -78.98449 | 35659 ft | 509 kts | 114° |
| 2026-04-23 17:05 | 27.62745 | -78.94739 | 35897 ft | 508 kts | 114° |
| 2026-04-23 17:05 | 27.61454 | -78.91020 | 35984 ft | 511 kts | 114° |
| 2026-04-23 17:05 | 27.58834 | -78.83489 | 36174 ft | 517 kts | 114° |
| 2026-04-23 17:06 | 27.57525 | -78.79726 | 36433 ft | 516 kts | 114° |
| 2026-04-23 17:06 | 27.56214 | -78.75963 | 36667 ft | 515 kts | 114° |
| 2026-04-23 17:06 | 27.54906 | -78.72210 | 36887 ft | 515 kts | 114° |
| 2026-04-23 17:06 | 27.53614 | -78.68509 | 37082 ft | 515 kts | 114° |
| 2026-04-23 17:07 | 27.50982 | -78.60982 | 37326 ft | 518 kts | 114° |
| 2026-04-23 17:07 | 27.49660 | -78.57206 | 37541 ft | 517 kts | 114° |
| 2026-04-23 17:07 | 27.48339 | -78.53439 | 37763 ft | 517 kts | 114° |
| 2026-04-23 17:08 | 27.47020 | -78.49679 | 37971 ft | 516 kts | 114° |
| 2026-04-23 17:08 | 27.45700 | -78.45921 | 38174 ft | 516 kts | 114° |
| 2026-04-23 17:08 | 27.44380 | -78.42165 | 38359 ft | 516 kts | 114° |
| 2026-04-23 17:08 | 27.43061 | -78.38416 | 38557 ft | 515 kts | 114° |
| 2026-04-23 17:09 | 27.41757 | -78.34716 | 38741 ft | 515 kts | 114° |
| 2026-04-23 17:09 | 27.40437 | -78.30973 | 38900 ft | 515 kts | 114° |
| 2026-04-23 17:09 | 27.39117 | -78.27234 | 39039 ft | 514 kts | 114° |
| 2026-04-23 17:09 | 27.37795 | -78.23493 | 39143 ft | 515 kts | 114° |
| 2026-04-23 17:10 | 27.35136 | -78.15983 | 39158 ft | 515 kts | 114° |
| 2026-04-23 17:10 | 27.31735 | -78.08975 | 39155 ft | 509 kts | 126° |
| 2026-04-23 17:11 | 27.27902 | -78.02359 | 39155 ft | 508 kts | 127° |
| 2026-04-23 17:11 | 27.23964 | -77.95753 | 39158 ft | 508 kts | 127° |
| 2026-04-23 17:12 | 27.20030 | -77.89152 | 39154 ft | 509 kts | 128° |
| 2026-04-23 17:12 | 27.16102 | -77.82539 | 39154 ft | 509 kts | 128° |
| 2026-04-23 17:13 | 27.12202 | -77.75969 | 39151 ft | 509 kts | 127° |
| 2026-04-23 17:13 | 27.08274 | -77.69359 | 39151 ft | 509 kts | 128° |
| 2026-04-23 17:14 | 27.04344 | -77.62757 | 39154 ft | 509 kts | 128° |
| 2026-04-23 17:14 | 27.00409 | -77.56157 | 39155 ft | 509 kts | 128° |
| 2026-04-23 17:15 | 26.96539 | -77.49560 | 39154 ft | 510 kts | 127° |
| 2026-04-23 17:15 | 26.92675 | -77.42893 | 39154 ft | 510 kts | 127° |
| 2026-04-23 17:16 | 26.88801 | -77.36232 | 39141 ft | 510 kts | 127° |
| 2026-04-23 17:16 | 26.84914 | -77.29579 | 39146 ft | 511 kts | 127° |
| 2026-04-23 17:17 | 26.81045 | -77.22975 | 39149 ft | 511 kts | 127° |
| 2026-04-23 17:17 | 26.77145 | -77.16327 | 39146 ft | 511 kts | 128° |
| 2026-04-23 17:18 | 26.71289 | -77.06361 | 39141 ft | 511 kts | 128° |
| 2026-04-23 17:19 | 26.67380 | -76.99722 | 39143 ft | 511 kts | 128° |
| 2026-04-23 17:19 | 26.63494 | -76.93131 | 39143 ft | 511 kts | 128° |
| 2026-04-23 17:20 | 26.59582 | -76.86505 | 39140 ft | 511 kts | 128° |
| 2026-04-23 17:21 | 26.51731 | -76.73240 | 39144 ft | 514 kts | 129° |
| 2026-04-23 17:21 | 26.45823 | -76.63284 | 39136 ft | 515 kts | 129° |
| 2026-04-23 17:22 | 26.39880 | -76.53287 | 39140 ft | 515 kts | 129° |
| 2026-04-23 17:23 | 26.33919 | -76.43287 | 39138 ft | 517 kts | 129° |
| 2026-04-23 17:24 | 26.27962 | -76.33311 | 39138 ft | 518 kts | 129° |
| 2026-04-23 17:24 | 26.21969 | -76.23294 | 39138 ft | 518 kts | 129° |
| 2026-04-23 17:25 | 26.15963 | -76.13280 | 39132 ft | 520 kts | 131° |
| 2026-04-23 17:26 | 26.07905 | -75.99885 | 39138 ft | 523 kts | 131° |
| 2026-04-23 17:27 | 26.01826 | -75.89799 | 39132 ft | 523 kts | 131° |
| 2026-04-23 17:27 | 25.97769 | -75.83081 | 39131 ft | 523 kts | 131° |
| 2026-04-23 17:28 | 25.93739 | -75.76418 | 39139 ft | 523 kts | 131° |
| 2026-04-23 17:28 | 25.89666 | -75.69698 | 39124 ft | 525 kts | 131° |
| 2026-04-23 17:29 | 25.85588 | -75.62975 | 39126 ft | 525 kts | 131° |
| 2026-04-23 17:30 | 25.80145 | -75.54018 | 39122 ft | 528 kts | 132° |
| 2026-04-23 17:30 | 25.73303 | -75.42782 | 39123 ft | 529 kts | 132° |
| 2026-04-23 17:31 | 25.69174 | -75.36017 | 39121 ft | 530 kts | 132° |
| 2026-04-23 17:31 | 25.65038 | -75.29246 | 39122 ft | 531 kts | 132° |
| 2026-04-23 17:32 | 25.60896 | -75.22474 | 39125 ft | 531 kts | 132° |
| 2026-04-23 17:32 | 25.56780 | -75.15757 | 39124 ft | 530 kts | 133° |
| 2026-04-23 17:33 | 25.52634 | -75.09001 | 39121 ft | 530 kts | 133° |
| 2026-04-23 17:33 | 25.48483 | -75.02247 | 39120 ft | 531 kts | 133° |
| 2026-04-23 17:34 | 25.44323 | -74.95489 | 39116 ft | 531 kts | 133° |
| 2026-04-23 17:35 | 25.38109 | -74.85408 | 39122 ft | 531 kts | 133° |
| 2026-04-23 17:35 | 25.31865 | -74.75302 | 39116 ft | 531 kts | 133° |
| 2026-04-23 17:36 | 25.27696 | -74.68568 | 39115 ft | 531 kts | 133° |
| 2026-04-23 17:36 | 25.23553 | -74.61883 | 39115 ft | 531 kts | 133° |
| 2026-04-23 17:37 | 25.19380 | -74.55161 | 39116 ft | 531 kts | 133° |
| 2026-04-23 17:38 | 25.13820 | -74.46218 | 39113 ft | 531 kts | 133° |
| 2026-04-23 17:38 | 25.09643 | -74.39510 | 39103 ft | 530 kts | 133° |
| 2026-04-23 17:39 | 25.04797 | -74.31738 | 39112 ft | 529 kts | 133° |
| 2026-04-23 17:39 | 25.01332 | -74.26191 | 39113 ft | 529 kts | 133° |
| 2026-04-23 17:40 | 24.97158 | -74.19518 | 39116 ft | 529 kts | 133° |
| 2026-04-23 17:40 | 24.92980 | -74.12848 | 39113 ft | 529 kts | 133° |
| 2026-04-23 17:41 | 24.88117 | -74.05093 | 39109 ft | 529 kts | 133° |
| 2026-04-23 17:41 | 24.82549 | -73.96231 | 39110 ft | 529 kts | 133° |
| 2026-04-23 17:42 | 24.76268 | -73.86253 | 39108 ft | 529 kts | 134° |
| 2026-04-23 17:43 | 24.72076 | -73.79605 | 39104 ft | 528 kts | 134° |
| 2026-04-23 17:43 | 24.67892 | -73.72978 | 39108 ft | 527 kts | 134° |
| 2026-04-23 17:44 | 24.63735 | -73.66403 | 39109 ft | 527 kts | 134° |
| 2026-04-23 17:44 | 24.57454 | -73.56489 | 39103 ft | 527 kts | 134° |
| 2026-04-23 17:45 | 24.51054 | -73.46707 | 39101 ft | 524 kts | 135° |
| 2026-04-23 17:46 | 24.44574 | -73.37104 | 39102 ft | 524 kts | 135° |
| 2026-04-23 17:46 | 24.40247 | -73.30657 | 39103 ft | 525 kts | 135° |
| 2026-04-23 17:47 | 24.35927 | -73.24208 | 39098 ft | 524 kts | 135° |
| 2026-04-23 17:48 | 24.29489 | -73.14605 | 39097 ft | 523 kts | 135° |
| 2026-04-23 17:48 | 24.25176 | -73.08187 | 39097 ft | 523 kts | 135° |
| 2026-04-23 17:49 | 24.20861 | -73.01775 | 39097 ft | 523 kts | 135° |
| 2026-04-23 17:49 | 24.16544 | -72.95367 | 39094 ft | 522 kts | 135° |
| 2026-04-23 17:50 | 24.12255 | -72.89010 | 39091 ft | 522 kts | 135° |
| 2026-04-23 17:50 | 24.05775 | -72.79420 | 39091 ft | 523 kts | 135° |
| 2026-04-23 17:51 | 24.01451 | -72.73031 | 39080 ft | 522 kts | 135° |
| 2026-04-23 17:52 | 23.94966 | -72.63463 | 39089 ft | 521 kts | 135° |
| 2026-04-23 17:52 | 23.88520 | -72.53970 | 39088 ft | 520 kts | 136° |
| 2026-04-23 17:53 | 23.82045 | -72.44455 | 39088 ft | 520 kts | 136° |
| 2026-04-23 17:54 | 23.77727 | -72.38121 | 39093 ft | 520 kts | 136° |
| 2026-04-23 17:54 | 23.71275 | -72.28668 | 39088 ft | 520 kts | 136° |
| 2026-04-23 17:55 | 23.64793 | -72.19189 | 39088 ft | 519 kts | 136° |
| 2026-04-23 17:56 | 23.60474 | -72.12883 | 39091 ft | 519 kts | 136° |
| 2026-04-23 17:56 | 23.54023 | -72.03481 | 39089 ft | 519 kts | 136° |
| 2026-04-23 17:57 | 23.49699 | -71.97188 | 39086 ft | 519 kts | 136° |
| 2026-04-23 17:58 | 23.43210 | -71.87758 | 39089 ft | 518 kts | 136° |
| 2026-04-23 17:58 | 23.38885 | -71.81483 | 39085 ft | 518 kts | 136° |
| 2026-04-23 17:59 | 23.34593 | -71.75237 | 39083 ft | 520 kts | 135° |
| 2026-04-23 17:59 | 23.30454 | -71.68766 | 39081 ft | 522 kts | 133° |
| 2026-04-23 18:00 | 23.26372 | -71.62229 | 39075 ft | 522 kts | 133° |
| 2026-04-23 18:00 | 23.22270 | -71.55731 | 39083 ft | 521 kts | 133° |
| 2026-04-23 18:01 | 23.18174 | -71.49308 | 39079 ft | 521 kts | 134° |
| 2026-04-23 18:01 | 23.14040 | -71.42853 | 39070 ft | 521 kts | 134° |
| 2026-04-23 18:02 | 23.09901 | -71.36397 | 39076 ft | 521 kts | 134° |
| 2026-04-23 18:02 | 23.05764 | -71.29947 | 39076 ft | 521 kts | 134° |
| 2026-04-23 18:03 | 23.01651 | -71.23543 | 39073 ft | 521 kts | 134° |
| 2026-04-23 18:03 | 22.97507 | -71.17097 | 39073 ft | 520 kts | 134° |
| 2026-04-23 18:04 | 22.93362 | -71.10658 | 39071 ft | 520 kts | 134° |
| 2026-04-23 18:04 | 22.89213 | -71.04223 | 39049 ft | 520 kts | 133° |
| 2026-04-23 18:05 | 22.85095 | -70.97841 | 39069 ft | 520 kts | 133° |
| 2026-04-23 18:05 | 22.80952 | -70.91429 | 39067 ft | 519 kts | 133° |
| 2026-04-23 18:06 | 22.76805 | -70.85018 | 39071 ft | 519 kts | 133° |
| 2026-04-23 18:06 | 22.72652 | -70.78608 | 39069 ft | 520 kts | 133° |
| 2026-04-23 18:07 | 22.68526 | -70.72246 | 39066 ft | 520 kts | 133° |
| 2026-04-23 18:07 | 22.64369 | -70.65843 | 39064 ft | 520 kts | 133° |
| 2026-04-23 18:08 | 22.60211 | -70.59448 | 39059 ft | 520 kts | 133° |
| 2026-04-23 18:08 | 22.56048 | -70.53051 | 39059 ft | 520 kts | 133° |
| 2026-04-23 18:09 | 22.51885 | -70.46664 | 39035 ft | 519 kts | 133° |
| 2026-04-23 18:09 | 22.47753 | -70.40329 | 39059 ft | 518 kts | 133° |
| 2026-04-23 18:10 | 22.43603 | -70.33975 | 39057 ft | 517 kts | 133° |
| 2026-04-23 18:10 | 22.39456 | -70.27636 | 39059 ft | 517 kts | 133° |
| 2026-04-23 18:11 | 22.35303 | -70.21294 | 39058 ft | 517 kts | 133° |
| 2026-04-23 18:11 | 22.31174 | -70.14996 | 39056 ft | 517 kts | 133° |
| 2026-04-23 18:12 | 22.27018 | -70.08665 | 39055 ft | 517 kts | 133° |
| 2026-04-23 18:12 | 22.22862 | -70.02340 | 39056 ft | 517 kts | 133° |
| 2026-04-23 18:13 | 22.18701 | -69.96016 | 39053 ft | 516 kts | 133° |
| 2026-04-23 18:13 | 22.14570 | -69.89744 | 39053 ft | 516 kts | 133° |
| 2026-04-23 18:14 | 22.10413 | -69.83440 | 39047 ft | 515 kts | 133° |
| 2026-04-23 18:14 | 22.06266 | -69.77157 | 39048 ft | 514 kts | 133° |
| 2026-04-23 18:15 | 22.02112 | -69.70874 | 39046 ft | 514 kts | 133° |
| 2026-04-23 18:15 | 21.97959 | -69.64600 | 39050 ft | 514 kts | 133° |
| 2026-04-23 18:16 | 21.93832 | -69.58370 | 39047 ft | 514 kts | 133° |
| 2026-04-23 18:16 | 21.89674 | -69.52102 | 39043 ft | 514 kts | 133° |
| 2026-04-23 18:17 | 21.83432 | -69.42706 | 39046 ft | 515 kts | 133° |
| 2026-04-23 18:17 | 21.79269 | -69.36448 | 39044 ft | 515 kts | 133° |
| 2026-04-23 18:18 | 21.75126 | -69.30225 | 39020 ft | 514 kts | 133° |
| 2026-04-23 18:18 | 21.70960 | -69.23977 | 39040 ft | 514 kts | 133° |
| 2026-04-23 18:19 | 21.66796 | -69.17738 | 39039 ft | 514 kts | 133° |
| 2026-04-23 18:19 | 21.62627 | -69.11501 | 39040 ft | 514 kts | 133° |
| 2026-04-23 18:20 | 21.58484 | -69.05309 | 39037 ft | 514 kts | 133° |
| 2026-04-23 18:20 | 21.54308 | -68.99073 | 39035 ft | 514 kts | 133° |
| 2026-04-23 18:21 | 21.50131 | -68.92843 | 39033 ft | 514 kts | 133° |
| 2026-04-23 18:21 | 21.45954 | -68.86621 | 39035 ft | 514 kts | 133° |
| 2026-04-23 18:22 | 21.41800 | -68.80440 | 39033 ft | 514 kts | 133° |
| 2026-04-23 18:22 | 21.37616 | -68.74221 | 39011 ft | 514 kts | 133° |
| 2026-04-23 18:23 | 21.31349 | -68.64918 | 39031 ft | 513 kts | 133° |
| 2026-04-23 18:24 | 21.25081 | -68.55631 | 39029 ft | 512 kts | 133° |
| 2026-04-23 18:25 | 21.18841 | -68.46400 | 39030 ft | 512 kts | 133° |
| 2026-04-23 18:25 | 21.14665 | -68.40229 | 39028 ft | 511 kts | 133° |
| 2026-04-23 18:26 | 21.10486 | -68.34063 | 39029 ft | 511 kts | 133° |
| 2026-04-23 18:26 | 21.06303 | -68.27897 | 39023 ft | 512 kts | 133° |
| 2026-04-23 18:27 | 21.02150 | -68.21782 | 39024 ft | 511 kts | 133° |
| 2026-04-23 18:27 | 20.97967 | -68.15629 | 39012 ft | 511 kts | 133° |
| 2026-04-23 18:28 | 20.93785 | -68.09483 | 39021 ft | 510 kts | 133° |
| 2026-04-23 18:28 | 20.89606 | -68.03350 | 39022 ft | 510 kts | 133° |
| 2026-04-23 18:29 | 20.85422 | -67.97222 | 39027 ft | 510 kts | 133° |
| 2026-04-23 18:29 | 20.81145 | -67.91260 | 39016 ft | 508 kts | 135° |
| 2026-04-23 18:30 | 20.76772 | -67.85335 | 39016 ft | 508 kts | 135° |
| 2026-04-23 18:30 | 20.72408 | -67.79395 | 39019 ft | 508 kts | 135° |
| 2026-04-23 18:31 | 20.68061 | -67.73445 | 39011 ft | 508 kts | 135° |
| 2026-04-23 18:31 | 20.63746 | -67.67529 | 39011 ft | 508 kts | 135° |
| 2026-04-23 18:32 | 20.59399 | -67.61575 | 39016 ft | 508 kts | 135° |
| 2026-04-23 18:32 | 20.55057 | -67.55635 | 39017 ft | 507 kts | 135° |
| 2026-04-23 18:33 | 20.50718 | -67.49707 | 39010 ft | 507 kts | 135° |
| 2026-04-23 18:33 | 20.46409 | -67.43827 | 39013 ft | 506 kts | 135° |
| 2026-04-23 18:34 | 20.42070 | -67.37913 | 39012 ft | 506 kts | 135° |
| 2026-04-23 18:34 | 20.37731 | -67.31999 | 39012 ft | 506 kts | 135° |
| 2026-04-23 18:35 | 20.33385 | -67.26086 | 39006 ft | 506 kts | 135° |
| 2026-04-23 18:35 | 20.29070 | -67.20222 | 39008 ft | 507 kts | 135° |
| 2026-04-23 18:36 | 20.24720 | -67.14316 | 39007 ft | 506 kts | 135° |
| 2026-04-23 18:36 | 20.20373 | -67.08419 | 38999 ft | 506 kts | 135° |
| 2026-04-23 18:37 | 20.16034 | -67.02536 | 39004 ft | 505 kts | 135° |
| 2026-04-23 18:37 | 20.11700 | -66.96668 | 39004 ft | 504 kts | 136° |
| 2026-04-23 18:38 | 20.07389 | -66.90839 | 39002 ft | 504 kts | 136° |
| 2026-04-23 18:38 | 20.03054 | -66.84983 | 39004 ft | 504 kts | 136° |
| 2026-04-23 18:39 | 19.98896 | -66.78933 | 39007 ft | 513 kts | 126° |
| 2026-04-23 18:39 | 19.95414 | -66.72293 | 39004 ft | 515 kts | 124° |
| 2026-04-23 18:40 | 19.92084 | -66.65597 | 39004 ft | 516 kts | 124° |
| 2026-04-23 18:40 | 19.88745 | -66.58849 | 39002 ft | 516 kts | 124° |
| 2026-04-23 18:41 | 19.85386 | -66.52109 | 38995 ft | 516 kts | 124° |
| 2026-04-23 18:41 | 19.82013 | -66.45374 | 38998 ft | 516 kts | 124° |
| 2026-04-23 18:42 | 19.78638 | -66.38646 | 38998 ft | 516 kts | 124° |
| 2026-04-23 18:42 | 19.75283 | -66.31967 | 38995 ft | 516 kts | 124° |
| 2026-04-23 18:43 | 19.71903 | -66.25244 | 38993 ft | 516 kts | 124° |
| 2026-04-23 18:43 | 19.68519 | -66.18522 | 38993 ft | 517 kts | 124° |
| 2026-04-23 18:44 | 19.65132 | -66.11799 | 38993 ft | 517 kts | 124° |
| 2026-04-23 18:44 | 19.61763 | -66.05120 | 38993 ft | 517 kts | 124° |
| 2026-04-23 18:45 | 19.58373 | -65.98408 | 38993 ft | 516 kts | 124° |
| 2026-04-23 18:45 | 19.54977 | -65.91693 | 38984 ft | 517 kts | 124° |
| 2026-04-23 18:46 | 19.51580 | -65.84984 | 38990 ft | 517 kts | 124° |
| 2026-04-23 18:46 | 19.48178 | -65.78270 | 38990 ft | 517 kts | 124° |
| 2026-04-23 18:47 | 19.44795 | -65.71603 | 38990 ft | 517 kts | 124° |
| 2026-04-23 18:47 | 19.41387 | -65.64893 | 38993 ft | 517 kts | 124° |
| 2026-04-23 18:48 | 19.37978 | -65.58190 | 38990 ft | 517 kts | 124° |
| 2026-04-23 18:48 | 19.34566 | -65.51488 | 38991 ft | 517 kts | 124° |
| 2026-04-23 18:49 | 19.31175 | -65.44834 | 38987 ft | 517 kts | 124° |
| 2026-04-23 18:49 | 19.27762 | -65.38154 | 38987 ft | 517 kts | 124° |
| 2026-04-23 18:50 | 19.24919 | -65.32587 | 38983 ft | 517 kts | 124° |
| 2026-04-23 18:50 | 19.20916 | -65.24758 | 38986 ft | 516 kts | 124° |
| 2026-04-23 18:50 | 19.19213 | -65.21429 | 38791 ft | 513 kts | 124° |
| 2026-04-23 18:51 | 19.17533 | -65.18151 | 38069 ft | 517 kts | 124° |
| 2026-04-23 18:51 | 19.15806 | -65.14787 | 37279 ft | 521 kts | 124° |
| 2026-04-23 18:51 | 19.14074 | -65.11412 | 36565 ft | 524 kts | 124° |
| 2026-04-23 18:51 | 19.12330 | -65.08013 | 35874 ft | 527 kts | 124° |
| 2026-04-23 18:52 | 19.10576 | -65.04597 | 35200 ft | 529 kts | 123° |
| 2026-04-23 18:52 | 19.08825 | -65.01188 | 34538 ft | 531 kts | 123° |
| 2026-04-23 18:52 | 19.07055 | -64.97742 | 33840 ft | 533 kts | 123° |
| 2026-04-23 18:52 | 19.05279 | -64.94288 | 33050 ft | 535 kts | 123° |
| 2026-04-23 18:53 | 19.03527 | -64.90882 | 32301 ft | 536 kts | 123° |
| 2026-04-23 18:53 | 19.01746 | -64.87423 | 31583 ft | 536 kts | 122° |
| 2026-04-23 18:53 | 18.99962 | -64.83959 | 30877 ft | 536 kts | 122° |
| 2026-04-23 18:53 | 18.98180 | -64.80500 | 30239 ft | 535 kts | 122° |
| 2026-04-23 18:54 | 18.96408 | -64.77063 | 29586 ft | 532 kts | 122° |
| 2026-04-23 18:54 | 18.94650 | -64.73653 | 29026 ft | 526 kts | 122° |
| 2026-04-23 18:54 | 18.92919 | -64.70297 | 28245 ft | 512 kts | 122° |
| 2026-04-23 18:54 | 18.91266 | -64.67087 | 27641 ft | 483 kts | 122° |
| 2026-04-23 18:55 | 18.89703 | -64.64055 | 27130 ft | 460 kts | 122° |
| 2026-04-23 18:55 | 18.88181 | -64.61115 | 26639 ft | 455 kts | 122° |
| 2026-04-23 18:55 | 18.86686 | -64.58232 | 26140 ft | 451 kts | 122° |
| 2026-04-23 18:55 | 18.85189 | -64.55343 | 25655 ft | 447 kts | 121° |
| 2026-04-23 18:56 | 18.84183 | -64.53402 | 25317 ft | 444 kts | 121° |
| 2026-04-23 18:56 | 18.82232 | -64.49638 | 24679 ft | 439 kts | 121° |
| 2026-04-23 18:56 | 18.80771 | -64.46821 | 24176 ft | 435 kts | 121° |
| 2026-04-23 18:56 | 18.79327 | -64.44036 | 23709 ft | 431 kts | 121° |
| 2026-04-23 18:57 | 18.77896 | -64.41279 | 23176 ft | 427 kts | 121° |
| 2026-04-23 18:57 | 18.76475 | -64.38542 | 22679 ft | 423 kts | 121° |
| 2026-04-23 18:57 | 18.75090 | -64.35874 | 22217 ft | 418 kts | 121° |
| 2026-04-23 18:57 | 18.73697 | -64.33192 | 21752 ft | 415 kts | 121° |
| 2026-04-23 18:58 | 18.72316 | -64.30536 | 21294 ft | 411 kts | 121° |
| 2026-04-23 18:58 | 18.70949 | -64.27908 | 20840 ft | 407 kts | 121° |
| 2026-04-23 18:58 | 18.69595 | -64.25305 | 20391 ft | 403 kts | 120° |
| 2026-04-23 18:58 | 18.68254 | -64.22727 | 19937 ft | 399 kts | 120° |
| 2026-04-23 18:59 | 18.66924 | -64.20173 | 19488 ft | 395 kts | 120° |
| 2026-04-23 18:59 | 18.65604 | -64.17638 | 19044 ft | 394 kts | 120° |
| 2026-04-23 18:59 | 18.64284 | -64.15107 | 18599 ft | 394 kts | 120° |
| 2026-04-23 18:59 | 18.62984 | -64.12613 | 18133 ft | 393 kts | 120° |
| 2026-04-23 19:00 | 18.61670 | -64.10093 | 17643 ft | 391 kts | 120° |
| 2026-04-23 19:00 | 18.60364 | -64.07589 | 17202 ft | 388 kts | 120° |
| 2026-04-23 19:00 | 18.59066 | -64.05102 | 16736 ft | 386 kts | 120° |
| 2026-04-23 19:00 | 18.57777 | -64.02633 | 16301 ft | 384 kts | 120° |
| 2026-04-23 19:01 | 18.56493 | -64.00175 | 15860 ft | 382 kts | 120° |
| 2026-04-23 19:01 | 18.55215 | -63.97729 | 15385 ft | 380 kts | 120° |
| 2026-04-23 19:01 | 18.53942 | -63.95294 | 14929 ft | 379 kts | 120° |
| 2026-04-23 19:01 | 18.52689 | -63.92898 | 14484 ft | 378 kts | 120° |
| 2026-04-23 19:02 | 18.51835 | -63.91265 | 14180 ft | 377 kts | 120° |
| 2026-04-23 19:02 | 18.50161 | -63.88067 | 13540 ft | 376 kts | 120° |
| 2026-04-23 19:02 | 18.48904 | -63.85666 | 13059 ft | 373 kts | 120° |
| 2026-04-23 19:02 | 18.47653 | -63.83278 | 12607 ft | 371 kts | 120° |
| 2026-04-23 19:03 | 18.46413 | -63.80912 | 12142 ft | 368 kts | 120° |
| 2026-04-23 19:03 | 18.45182 | -63.78563 | 11673 ft | 365 kts | 120° |
| 2026-04-23 19:03 | 18.43960 | -63.76233 | 11256 ft | 361 kts | 120° |
| 2026-04-23 19:03 | 18.42768 | -63.73958 | 11132 ft | 348 kts | 120° |
| 2026-04-23 19:04 | 18.41633 | -63.71795 | 11018 ft | 336 kts | 120° |
| 2026-04-23 19:04 | 18.40523 | -63.69678 | 10888 ft | 325 kts | 120° |
| 2026-04-23 19:04 | 18.39437 | -63.67630 | 10756 ft | 316 kts | 121° |
| 2026-04-23 19:04 | 18.38112 | -63.65839 | 10603 ft | 306 kts | 135° |
| 2026-04-23 19:05 | 18.36601 | -63.64294 | 10385 ft | 301 kts | 137° |
| 2026-04-23 19:05 | 18.35080 | -63.62799 | 10144 ft | 298 kts | 137° |
| 2026-04-23 19:05 | 18.33573 | -63.61316 | 9876 ft | 295 kts | 137° |
| 2026-04-23 19:05 | 18.32078 | -63.59841 | 9557 ft | 294 kts | 137° |
| 2026-04-23 19:06 | 18.30597 | -63.58376 | 9257 ft | 291 kts | 137° |
| 2026-04-23 19:06 | 18.29125 | -63.56917 | 8939 ft | 290 kts | 137° |
| 2026-04-23 19:06 | 18.27669 | -63.55474 | 8506 ft | 285 kts | 137° |
| 2026-04-23 19:06 | 18.26262 | -63.54079 | 7867 ft | 279 kts | 136° |
| 2026-04-23 19:07 | 18.24882 | -63.52710 | 7471 ft | 265 kts | 136° |
| 2026-04-23 19:07 | 18.23557 | -63.51397 | 7153 ft | 260 kts | 136° |
| 2026-04-23 19:07 | 18.22242 | -63.50093 | 6829 ft | 260 kts | 136° |
| 2026-04-23 19:07 | 18.20924 | -63.48787 | 6535 ft | 261 kts | 136° |
| 2026-04-23 19:08 | 18.19599 | -63.47474 | 6187 ft | 262 kts | 136° |
| 2026-04-23 19:08 | 18.18274 | -63.46162 | 5860 ft | 262 kts | 136° |
| 2026-04-23 19:08 | 18.16948 | -63.44848 | 5527 ft | 262 kts | 136° |
| 2026-04-23 19:08 | 18.15625 | -63.43538 | 5191 ft | 262 kts | 136° |
| 2026-04-23 19:09 | 18.14299 | -63.42224 | 4860 ft | 262 kts | 136° |
| 2026-04-23 19:09 | 18.12987 | -63.40926 | 4518 ft | 262 kts | 136° |
| 2026-04-23 19:09 | 18.11659 | -63.39612 | 4170 ft | 262 kts | 136° |
| 2026-04-23 19:09 | 18.10330 | -63.38297 | 3826 ft | 262 kts | 135° |
| 2026-04-23 19:10 | 18.09002 | -63.36984 | 3485 ft | 262 kts | 136° |
| 2026-04-23 19:10 | 18.07674 | -63.35672 | 3134 ft | 262 kts | 135° |
| 2026-04-23 19:10 | 18.06349 | -63.34361 | 2782 ft | 261 kts | 135° |
| 2026-04-23 19:10 | 18.05040 | -63.33067 | 2627 ft | 253 kts | 135° |
| 2026-04-23 19:11 | 18.03791 | -63.31834 | 2604 ft | 239 kts | 135° |
| 2026-04-23 19:11 | 18.02652 | -63.30663 | 2604 ft | 225 kts | 130° |
| 2026-04-23 19:11 | 18.01872 | -63.29315 | 2603 ft | 210 kts | 107° |
| 2026-04-23 19:11 | 18.01674 | -63.27852 | 2497 ft | 200 kts | 86° |
| 2026-04-23 19:12 | 18.01765 | -63.26885 | 2439 ft | 195 kts | 81° |
| 2026-04-23 19:12 | 18.02027 | -63.25114 | 2385 ft | 174 kts | 80° |
| 2026-04-23 19:12 | 18.02208 | -63.23922 | 2257 ft | 158 kts | 80° |
| 2026-04-23 19:12 | 18.02374 | -63.22811 | 2024 ft | 151 kts | 79° |
| 2026-04-23 19:13 | 18.02533 | -63.21744 | 1798 ft | 142 kts | 80° |
| 2026-04-23 19:13 | 18.02676 | -63.20765 | 1706 ft | 131 kts | 79° |
| 2026-04-23 19:13 | 18.02819 | -63.19796 | 1614 ft | 137 kts | 79° |
| 2026-04-23 19:13 | 18.02962 | -63.18807 | 1408 ft | 136 kts | 80° |
| 2026-04-23 19:14 | 18.03102 | -63.17827 | 1242 ft | 135 kts | 80° |
| 2026-04-23 19:14 | 18.03239 | -63.16864 | 1065 ft | 135 kts | 80° |
| 2026-04-23 19:14 | 18.03378 | -63.15889 | 877 ft | 135 kts | 80° |
| 2026-04-23 19:14 | 18.03519 | -63.14919 | 635 ft | 135 kts | 82° |
| 2026-04-23 19:15 | 18.03661 | -63.13954 | 491 ft | 135 kts | 82° |
| 2026-04-23 19:15 | 18.03805 | -63.12961 | 285 ft | 138 kts | 83° |
| 2026-04-23 19:15 | 18.03952 | -63.11978 | 96 ft | 134 kts | 84° |
| 2026-04-23 19:15 | 18.04067 | -63.11074 | 32 ft | 105 kts | 81° |
| 2026-04-23 19:16 | 18.04146 | -63.10556 | 32 ft | 42 kts | 75° |
| 2026-04-23 19:16 | 18.04139 | -63.10466 | 37 ft | 3 kts | 215° |
| 2026-04-23 19:16 | 18.04133 | -63.10536 | 35 ft | 20 kts | 268° |
| 2026-04-23 19:17 | 18.04082 | -63.10932 | 34 ft | 34 kts | 263° |
| 2026-04-23 19:17 | 18.04053 | -63.11164 | 32 ft | 17 kts | 262° |
| 2026-04-23 19:17 | 18.04074 | -63.11285 | 45 ft | 18 kts | 336° |
| 2026-04-23 19:17 | 18.04214 | -63.11322 | 33 ft | 18 kts | 333° |
| 2026-04-23 19:18 | 18.04244 | -63.11418 | 33 ft | 8 kts | 309° |
| 2026-04-23 19:18 | 18.04279 | -63.11426 | 33 ft | 2 kts | 353° |
| 2026-04-23 19:18 | 18.04297 | -63.11428 | 33 ft | 3 kts | 352° |
| 2026-04-23 19:18 | 18.04312 | -63.11431 | 33 ft | 1 kts | 351° |
| 2026-04-23 19:19 | 18.04314 | -63.11431 | 33 ft | 0 kts | 351° |